Add date Part number Description Manufacture PDF
07-20-2016 NE556N Texas Instruments NE556N datasheet
07-20-2016 TLE4946-2L TLE4946-2L High Precision Hall Effe Infineon TLE4946-2L datasheet
07-20-2016 BYQ28 BYQ28 series E and ED Rectifier d NXP BYQ28 datasheet
07-20-2016 ISZ-2510 InvenSense Inc. 1745 Technology Dri InvenSense ISZ-2510 datasheet
07-20-2016 BTM222 Rayson Class1 BC04-ext Module Featu Hyper Taiwan Technology BTM222 datasheet
07-20-2016 BTM222B-AC BTM222B-X Datasheet BTM222B-A Datas Hyper Taiwan Technology BTM222B-AC datasheet
07-20-2016 BTM222B-A BTM222B-X Datasheet BTM222B-A Datas Hyper Taiwan Technology BTM222B-A datasheet
07-20-2016 BTM-222 Rayson Class1 BC04-ext Module Featu Hyper Taiwan Technology BTM-222 datasheet
07-20-2016 KTC1026 SEMICONDUCTOR TECHNICAL DATA HIGH V KEC KTC1026 datasheet
07-20-2016 RN171 RN171 2.4 GHz IEEE Std. 802.11 b/g Microchip RN171 datasheet
07-20-2016 SFC2101A ETC SFC2101A datasheet
07-20-2016 SFC2201A ETC SFC2201A datasheet
07-20-2016 SFC2301A ETC SFC2301A datasheet
07-20-2016 SN54ACT574 Texas Instruments SN54ACT574 datasheet
07-20-2016 SN74ACT574 Texas Instruments SN74ACT574 datasheet
07-20-2016 SN54ACT573 Texas Instruments SN54ACT573 datasheet
07-20-2016 SN74ACT573 Texas Instruments SN74ACT573 datasheet
07-20-2016 SN54ACT564 Texas Instruments SN54ACT564 datasheet
07-20-2016 SN74ACT564 Texas Instruments SN74ACT564 datasheet
07-20-2016 SN54ACT563 Texas Instruments SN54ACT563 datasheet
07-20-2016 SN74ACT563 Texas Instruments SN74ACT563 datasheet
07-20-2016 SN54ACT534 Texas Instruments SN54ACT534 datasheet
07-20-2016 SN74ACT534 Texas Instruments SN74ACT534 datasheet
07-20-2016 SN54ACT533 Texas Instruments SN54ACT533 datasheet
07-20-2016 SN74ACT533 Texas Instruments SN74ACT533 datasheet
07-20-2016 SN74ACT373-EP Texas Instruments SN74ACT373-EP datasheet
07-20-2016 SN54ACT373 Texas Instruments SN54ACT373 datasheet
07-20-2016 SN74ACT373 Texas Instruments SN74ACT373 datasheet
07-20-2016 SN74ACT3632 Texas Instruments SN74ACT3632 datasheet
07-20-2016 SN54ACT32 Texas Instruments SN54ACT32 datasheet
07-20-2016 SN74ACT32 Texas Instruments SN74ACT32 datasheet
07-20-2016 SN74ACT244-Q1 Texas Instruments SN74ACT244-Q1 datasheet
07-20-2016 SN74ACT244-EP Texas Instruments SN74ACT244-EP datasheet
07-20-2016 SN74ACT2227 Texas Instruments SN74ACT2227 datasheet
07-20-2016 SN74ACT2226 Texas Instruments SN74ACT2226 datasheet
07-20-2016 SN74ACT16374-EP Texas Instruments SN74ACT16374-EP datasheet
07-20-2016 SN74ACT16373-EP Texas Instruments SN74ACT16373-EP datasheet
07-20-2016 SN74ACT16245-EP Texas Instruments SN74ACT16245-EP datasheet
07-20-2016 SN54ACT1284 Texas Instruments SN54ACT1284 datasheet
07-20-2016 SN74ACT1284 Texas Instruments SN74ACT1284 datasheet
07-20-2016 SN74ACT10-Q1 Texas Instruments SN74ACT10-Q1 datasheet
07-20-2016 SN74ACT1073 Texas Instruments SN74ACT1073 datasheet
07-20-2016 SN74ACT1071 Texas Instruments SN74ACT1071 datasheet
07-20-2016 SN74ACT08-EP Texas Instruments SN74ACT08-EP datasheet
07-20-2016 SN74ACT04-EP Texas Instruments SN74ACT04-EP datasheet
07-20-2016 SN74ACT00-Q1 Texas Instruments SN74ACT00-Q1 datasheet
07-20-2016 SN54AC86 Texas Instruments SN54AC86 datasheet
07-20-2016 SN74AC86 Texas Instruments SN74AC86 datasheet
07-20-2016 SN74AC74-EP Texas Instruments SN74AC74-EP datasheet
07-20-2016 SN54AC573 Texas Instruments SN54AC573 datasheet
07-20-2016 SN74AC573 Texas Instruments SN74AC573 datasheet
07-20-2016 SN54AC564 Texas Instruments SN54AC564 datasheet
07-20-2016 SN74AC564 Texas Instruments SN74AC564 datasheet
07-20-2016 SN54AC563 Texas Instruments SN54AC563 datasheet
07-20-2016 SN74AC563 Texas Instruments SN74AC563 datasheet
07-20-2016 SN54AC534 Texas Instruments SN54AC534 datasheet
07-20-2016 SN74AC534 Texas Instruments SN74AC534 datasheet
07-20-2016 SN54AC533 Texas Instruments SN54AC533 datasheet
07-20-2016 SN74AC533 Texas Instruments SN74AC533 datasheet
07-20-2016 SN54AC374 Texas Instruments SN54AC374 datasheet
07-20-2016 SN74AC374 Texas Instruments SN74AC374 datasheet
07-20-2016 SN74AC373-EP Texas Instruments SN74AC373-EP datasheet
07-20-2016 SN74AC32-EP Texas Instruments SN74AC32-EP datasheet
07-20-2016 SN54AC32 Texas Instruments SN54AC32 datasheet
07-20-2016 SN74AC32 Texas Instruments SN74AC32 datasheet
07-20-2016 SN74AC245-EP Texas Instruments SN74AC245-EP datasheet
07-20-2016 SN74AC244-EP Texas Instruments SN74AC244-EP datasheet
07-20-2016 SN54AC244 Texas Instruments SN54AC244 datasheet
07-20-2016 SN74AC244 Texas Instruments SN74AC244 datasheet
07-20-2016 SN54AC241 Texas Instruments SN54AC241 datasheet
07-20-2016 SN74AC241 Texas Instruments SN74AC241 datasheet
07-20-2016 D13009K NPN 型高压功率开关晶体管 JILIN SINO-MICROELECTRONICS D13009K datasheet
07-20-2016 PTK8756B PTK8756B Data Sheet TEL : 886-2-89 Portek PTK8756B datasheet
07-20-2016 MUR115 MUR120 Series SWITCHMODE Power Rec ON Semiconductor MUR115 datasheet
07-20-2016 ZMPT107 ZMPT101B(ZMPT107) voltage transform ETC ZMPT107 datasheet
07-20-2016 ZMPT101 ZMPT101 CURRENT TRANSFORMER Mechani ZeMing ZMPT101 datasheet
07-20-2016 ZMPT101B ZMPT101B(ZMPT107) voltage transform ETC ZMPT101B datasheet
07-20-2016 LM2940 www.ti.com FEATURES • Dropout Vol Texas LM2940 datasheet
07-20-2016 LM1575HV LM1575 LM1575HV LM2575 LM2575HV Ser National Semiconductor LM1575HV datasheet
07-20-2016 2N5401 DISCRETE SEMICONDUCTORS DATA SHEET Philips 2N5401 datasheet
07-20-2016 2N5400 DISCRETE SEMICONDUCTORS DATA SHEET Philips 2N5400 datasheet
07-20-2016 2N5400 2N5400 & 2N5401 Silicon NPN Transis NTE 2N5400 datasheet
07-20-2016 2N5401 2N5400 & 2N5401 Silicon NPN Transis NTE 2N5401 datasheet
07-20-2016 2N5401 2N5400 / 2N5401 2N5400 / 2N5401 P Diotec 2N5401 datasheet
07-20-2016 2N5400 2N5400 / 2N5401 2N5400 / 2N5401 P Diotec 2N5400 datasheet
07-20-2016 SE556J Texas Instruments SE556J datasheet
07-20-2016 NA556D Texas Instruments NA556D datasheet
07-20-2016 NA556N Texas Instruments NA556N datasheet
07-20-2016 SA556N Texas Instruments SA556N datasheet
07-20-2016 NE556D Texas Instruments NE556D datasheet
07-20-2016 SMC1602B SMC1602B SMC1602B 4.95X7.95(WXH)mm SunMan SMC1602B datasheet
07-20-2016 LCM1602C-05 ETC LCM1602C-05 datasheet
07-20-2016 LCM1602C BEIJING QINGYUN HI-TECH DEVELOPMENT QINGYUN HI-TECH LCM1602C datasheet
07-20-2016 MTX2-73 RMMFIC BTalurn ansformer 50Ω 2000 Mini-Circuits MTX2-73 datasheet
07-20-2016 LVF-213A-G-R Optic Sensors LVF-200A-R Series Omega LVF-213A-G-R datasheet
07-20-2016 LVF-211A-G-R Optic Sensors LVF-200A-R Series Omega LVF-211A-G-R datasheet
07-20-2016 LVF-212A-G-R Optic Sensors LVF-200A-R Series Omega LVF-212A-G-R datasheet
07-20-2016 LVF-210A-G-R Optic Sensors LVF-200A-R Series Omega LVF-210A-G-R datasheet
07-20-2016 LVF-212A-R Optic Sensors LVF-200A-R Series Omega LVF-212A-R datasheet
07-20-2016 LVF-213A-R Optic Sensors LVF-200A-R Series Omega LVF-213A-R datasheet
07-20-2016 LVF-211A-R Optic Sensors LVF-200A-R Series Omega LVF-211A-R datasheet
07-20-2016 LVF-210A-R Optic Sensors LVF-200A-R Series Omega LVF-210A-R datasheet
07-20-2016 A2I20H060GNR1 Freescale Semiconductor Technical D Freescale Semiconductor A2I20H060GNR1 datasheet
07-20-2016 A2I20H060NR1 Freescale Semiconductor Technical D Freescale Semiconductor A2I20H060NR1 datasheet
07-20-2016 RFX240 RFX240 Production Data Sheet 2.4GHz Skyworks RFX240 datasheet
07-20-2016 NPMH1210HM2R2TR300F Surface Mount Power Inductor FEATU NIC COMPONENTS NPMH1210HM2R2TR300F datasheet
07-20-2016 NPMH1210HM1R5TR320F Surface Mount Power Inductor FEATU NIC COMPONENTS NPMH1210HM1R5TR320F datasheet
07-20-2016 NPMH1210HM1R0TR350F Surface Mount Power Inductor FEATU NIC COMPONENTS NPMH1210HM1R0TR350F datasheet
07-20-2016 NPMH1210CM2R2TR250F Surface Mount Power Inductor FEATU NIC COMPONENTS NPMH1210CM2R2TR250F datasheet
07-20-2016 NPMH1210CM1R5TR320F Surface Mount Power Inductor FEATU NIC COMPONENTS NPMH1210CM1R5TR320F datasheet
07-20-2016 NPMH1210CM1R0TR330F Surface Mount Power Inductor FEATU NIC COMPONENTS NPMH1210CM1R0TR330F datasheet
07-20-2016 NPMH1210CMR47TR450F Surface Mount Power Inductor FEATU NIC COMPONENTS NPMH1210CMR47TR450F datasheet
07-20-2016 NPMH1210CMR33TR580F Surface Mount Power Inductor FEATU NIC COMPONENTS NPMH1210CMR33TR580F datasheet
07-20-2016 NPMH1210CMR24TR600F Surface Mount Power Inductor FEATU NIC COMPONENTS NPMH1210CMR24TR600F datasheet
07-20-2016 NPMH1210CM2R2TR250F Surface Mount Power Inductor FEATU NIC COMPONENTS NPMH1210CM2R2TR250F datasheet
07-20-2016 NPMH1210CM1R5TR320F Surface Mount Power Inductor FEATU NIC COMPONENTS NPMH1210CM1R5TR320F datasheet
07-20-2016 NPMH1210CM1R0TR330F Surface Mount Power Inductor FEATU NIC COMPONENTS NPMH1210CM1R0TR330F datasheet
07-20-2016 NPMH1210CMR47TR450F Surface Mount Power Inductor FEATU NIC COMPONENTS NPMH1210CMR47TR450F datasheet
07-20-2016 NPMH1210CMR33TR580F Surface Mount Power Inductor FEATU NIC COMPONENTS NPMH1210CMR33TR580F datasheet
07-20-2016 NPMH1210CMR24TR600F Surface Mount Power Inductor FEATU NIC COMPONENTS NPMH1210CMR24TR600F datasheet
07-20-2016 NPMH1008DM2R2TR250F Surface Mount Power Inductor FEATU NIC COMPONENTS NPMH1008DM2R2TR250F datasheet
07-20-2016 NPMH1008DM1R5TR270F Surface Mount Power Inductor FEATU NIC COMPONENTS NPMH1008DM1R5TR270F datasheet
07-20-2016 NPMH1008DM1R0TR360F Surface Mount Power Inductor FEATU NIC COMPONENTS NPMH1008DM1R0TR360F datasheet
07-20-2016 NPMH1008DMR68TR380F Surface Mount Power Inductor FEATU NIC COMPONENTS NPMH1008DMR68TR380F datasheet
07-20-2016 NPMH1008DMR47TR380F Surface Mount Power Inductor FEATU NIC COMPONENTS NPMH1008DMR47TR380F datasheet
07-20-2016 NPMH1008DMR33TR580F Surface Mount Power Inductor FEATU NIC COMPONENTS NPMH1008DMR33TR580F datasheet
07-20-2016 NPMH1008DMR24TR620F Surface Mount Power Inductor FEATU NIC COMPONENTS NPMH1008DMR24TR620F datasheet
07-20-2016 NPMH1008CM2R2TR220F Surface Mount Power Inductor FEATU NIC COMPONENTS NPMH1008CM2R2TR220F datasheet
07-20-2016 NPMH1008CM1R5TR240F Surface Mount Power Inductor FEATU NIC COMPONENTS NPMH1008CM1R5TR240F datasheet
07-20-2016 NPMH1008CM1R0TR300F Surface Mount Power Inductor FEATU NIC COMPONENTS NPMH1008CM1R0TR300F datasheet
07-20-2016 NPMH1008CMR68TR370F Surface Mount Power Inductor FEATU NIC COMPONENTS NPMH1008CMR68TR370F datasheet
07-20-2016 NPMH1008CMR47TR390F Surface Mount Power Inductor FEATU NIC COMPONENTS NPMH1008CMR47TR390F datasheet
07-20-2016 NPMH1008CMR33TR380F Surface Mount Power Inductor FEATU NIC COMPONENTS NPMH1008CMR33TR380F datasheet
07-20-2016 NPMH1008CMR24TR550F Surface Mount Power Inductor FEATU NIC COMPONENTS NPMH1008CMR24TR550F datasheet
07-20-2016 NPMH0806CM2R2TR180F Surface Mount Power Inductor FEATU NIC COMPONENTS NPMH0806CM2R2TR180F datasheet
07-20-2016 NPMH0806CM1R5TR230F Surface Mount Power Inductor FEATU NIC COMPONENTS NPMH0806CM1R5TR230F datasheet
07-20-2016 NPMH0806CM1R0TR250F Surface Mount Power Inductor FEATU NIC COMPONENTS NPMH0806CM1R0TR250F datasheet
07-20-2016 NPMH0806CMR68TR270F Surface Mount Power Inductor FEATU NIC COMPONENTS NPMH0806CMR68TR270F datasheet
07-20-2016 NPMH0806CMR47TR350F Surface Mount Power Inductor FEATU NIC COMPONENTS NPMH0806CMR47TR350F datasheet
07-20-2016 NPMH0806CMR33TR470F Surface Mount Power Inductor FEATU NIC COMPONENTS NPMH0806CMR33TR470F datasheet
07-20-2016 NPMH0806CMR24TR390F Surface Mount Power Inductor FEATU NIC COMPONENTS NPMH0806CMR24TR390F datasheet
07-20-2016 NPMH0806BM1R5TR210F Surface Mount Power Inductor FEATU NIC COMPONENTS NPMH0806BM1R5TR210F datasheet
07-20-2016 NPMH0806BM1R0TR230F Surface Mount Power Inductor FEATU NIC COMPONENTS NPMH0806BM1R0TR230F datasheet
07-20-2016 NPMH0806BMR47TR310F Surface Mount Power Inductor FEATU NIC COMPONENTS NPMH0806BMR47TR310F datasheet
07-20-2016 NPMH0805BMR47TR300F Surface Mount Power Inductor FEATU NIC COMPONENTS NPMH0805BMR47TR300F datasheet
07-20-2016 NPMH0805BMR24TR420F Surface Mount Power Inductor FEATU NIC COMPONENTS NPMH0805BMR24TR420F datasheet
07-20-2016 NPMH0805BMR47TR300F Surface Mount Power Inductor FEATU NIC COMPONENTS NPMH0805BMR47TR300F datasheet
07-20-2016 NPMH0805BMR24TR420F Surface Mount Power Inductor FEATU NIC COMPONENTS NPMH0805BMR24TR420F datasheet
07-20-2016 NPMH0603BMR47TR160F Surface Mount Power Inductor FEATU NIC COMPONENTS NPMH0603BMR47TR160F datasheet
07-20-2016 NPMH0603BMR33TR220F Surface Mount Power Inductor FEATU NIC COMPONENTS NPMH0603BMR33TR220F datasheet
07-20-2016 NPMH0603BMR24TR260F Surface Mount Power Inductor FEATU NIC COMPONENTS NPMH0603BMR24TR260F datasheet
07-20-2016 D1710 SavantIC Semiconductor Silicon NPN SavantIC D1710 datasheet
07-20-2016 J6815 FJAF6815 FJAF6815 High Voltage Co Fairchild Semiconductor J6815 datasheet
07-20-2016 RT8063 ® RT8063 3A, 2MHz, Synchronous St Richtek RT8063 datasheet
07-20-2016 SS8050 DATA SHEET SEMICONDUCTOR TO-92 Pla YS SS8050 datasheet
07-20-2016 BAS70-05 SWITCHING DIODE FEATURES Low Turn-o HOTTECH BAS70-05 datasheet
07-20-2016 BAS70-06 SWITCHING DIODE FEATURES Low Turn-o HOTTECH BAS70-06 datasheet
07-20-2016 BAS70-04 SWITCHING DIODE FEATURES Low Turn-o HOTTECH BAS70-04 datasheet
07-20-2016 BAS70 SWITCHING DIODE FEATURES Low Turn-o HOTTECH BAS70 datasheet
07-20-2016 SS8050 INCHANGE Semiconductor isc Silicon INCHANGE SS8050 datasheet
07-20-2016 HKT1117 1A LOW DROPOUT VOLTAGE REGULATOR T HOTTECH HKT1117 datasheet
07-20-2016 SS8050-G General Purpose Transistor SS8050-G Comchip SS8050-G datasheet
07-20-2016 STC8050 S STC8050 0 NPN Silicon Transistor Suntac STC8050 datasheet
07-20-2016 C8050 S STC8050 0 NPN Silicon Transistor Suntac C8050 datasheet
07-20-2016 SN54AHC244 Texas Instruments SN54AHC244 datasheet
07-20-2016 SN74AHC244 Texas Instruments SN74AHC244 datasheet
07-20-2016 SN74AHC1GU04 Texas Instruments SN74AHC1GU04 datasheet
07-20-2016 SN74AHC1G86-Q1 Texas Instruments SN74AHC1G86-Q1 datasheet
07-20-2016 SN74AHC1G86-EP Texas Instruments SN74AHC1G86-EP datasheet
07-20-2016 SN74AHC1G86 Texas Instruments SN74AHC1G86 datasheet
07-20-2016 SN74AHC1G32-Q1 Texas Instruments SN74AHC1G32-Q1 datasheet
07-20-2016 SN74AHC1G32 Texas Instruments SN74AHC1G32 datasheet
07-20-2016 SN74AHC1G14 Texas Instruments SN74AHC1G14 datasheet
07-20-2016 SN74AHC1G126-EP Texas Instruments SN74AHC1G126-EP datasheet
07-20-2016 SN74AHC1G126 Texas Instruments SN74AHC1G126 datasheet
07-20-2016 SN74AHC1G125 Texas Instruments SN74AHC1G125 datasheet
07-20-2016 SN74AHC1G09 Texas Instruments SN74AHC1G09 datasheet
07-20-2016 SN74AHC1G08-Q1 Texas Instruments SN74AHC1G08-Q1 datasheet
07-20-2016 SN74AHC1G08 Texas Instruments SN74AHC1G08 datasheet
07-20-2016 SN74AHC1G04-Q1 Texas Instruments SN74AHC1G04-Q1 datasheet
07-20-2016 SN74AHC1G04 Texas Instruments SN74AHC1G04 datasheet
07-20-2016 SN74AHC1G02-EP Texas Instruments SN74AHC1G02-EP datasheet
07-20-2016 SN74AHC1G02 Texas Instruments SN74AHC1G02 datasheet
07-20-2016 SN74AHC1G00-Q1 Texas Instruments SN74AHC1G00-Q1 datasheet
07-20-2016 SN74AHC1G00 Texas Instruments SN74AHC1G00 datasheet
07-20-2016 SN54AHC174 Texas Instruments SN54AHC174 datasheet
07-20-2016 SN74AHC174 Texas Instruments SN74AHC174 datasheet
07-20-2016 SN54AHC16541 Texas Instruments SN54AHC16541 datasheet
07-20-2016 SN74AHC16541 Texas Instruments SN74AHC16541 datasheet
07-20-2016 SN54AHC16540 Texas Instruments SN54AHC16540 datasheet
07-20-2016 SN74AHC16540 Texas Instruments SN74AHC16540 datasheet
07-20-2016 SN54AHC16374 Texas Instruments SN54AHC16374 datasheet
07-20-2016 SN74AHC16374 Texas Instruments SN74AHC16374 datasheet
07-20-2016 SN54AHC16373 Texas Instruments SN54AHC16373 datasheet
07-20-2016 SN74AHC16373 Texas Instruments SN74AHC16373 datasheet
07-20-2016 SN54AHC16244 Texas Instruments SN54AHC16244 datasheet
07-20-2016 SN74AHC16244 Texas Instruments SN74AHC16244 datasheet
07-20-2016 SN54AHC16240 Texas Instruments SN54AHC16240 datasheet
07-20-2016 SN74AHC16240 Texas Instruments SN74AHC16240 datasheet
07-20-2016 SN54AHC158 Texas Instruments SN54AHC158 datasheet
07-20-2016 SN74AHC158 Texas Instruments SN74AHC158 datasheet
07-20-2016 SN74AHC14Q-Q1 Texas Instruments SN74AHC14Q-Q1 datasheet
07-20-2016 SN74AHC14-EP Texas Instruments SN74AHC14-EP datasheet
07-20-2016 SN54AHC139 Texas Instruments SN54AHC139 datasheet
07-20-2016 SN74AHC139 Texas Instruments SN74AHC139 datasheet
07-20-2016 SN74AHC132 Texas Instruments SN74AHC132 datasheet
07-20-2016 SN74AHC125-Q1 Texas Instruments SN74AHC125-Q1 datasheet
07-20-2016 SN74AHC125Q Texas Instruments SN74AHC125Q datasheet
07-20-2016 SN74AHC125-EP Texas Instruments SN74AHC125-EP datasheet
07-20-2016 SN74AHC123A-EP Texas Instruments SN74AHC123A-EP datasheet
07-20-2016 SN54AHC123A Texas Instruments SN54AHC123A datasheet
07-20-2016 SN74AHC123A Texas Instruments SN74AHC123A datasheet
07-20-2016 SN74AHC08Q-Q1 Texas Instruments SN74AHC08Q-Q1 datasheet
07-20-2016 SN74AHC08-EP Texas Instruments SN74AHC08-EP datasheet
07-20-2016 SN54AHC08 Texas Instruments SN54AHC08 datasheet
07-20-2016 SN74AHC08 Texas Instruments SN74AHC08 datasheet
07-20-2016 SN74AHC05 Texas Instruments SN74AHC05 datasheet
07-20-2016 SN54AHC05 Texas Instruments SN54AHC05 datasheet
07-20-2016 SN74AHC04-Q1 Texas Instruments SN74AHC04-Q1 datasheet
07-20-2016 SN74AHC04Q Texas Instruments SN74AHC04Q datasheet
07-20-2016 SN74AHC04-EP Texas Instruments SN74AHC04-EP datasheet
07-20-2016 SN74AHC02-Q1 Texas Instruments SN74AHC02-Q1 datasheet
07-20-2016 SN74AHC02-EP Texas Instruments SN74AHC02-EP datasheet
07-20-2016 SN74AHC00-Q1 Texas Instruments SN74AHC00-Q1 datasheet
07-20-2016 SN74AHC00-EP Texas Instruments SN74AHC00-EP datasheet
07-20-2016 SN54ACT8997 Texas Instruments SN54ACT8997 datasheet
07-20-2016 SN74ACT8997 Texas Instruments SN74ACT8997 datasheet
07-20-2016 SN54ACT86 Texas Instruments SN54ACT86 datasheet
07-20-2016 SN74ACT86 Texas Instruments SN74ACT86 datasheet
07-20-2016 SN74ACT7814 Texas Instruments SN74ACT7814 datasheet
07-20-2016 SN74ACT7813 Texas Instruments SN74ACT7813 datasheet
07-20-2016 SN74ACT7808 Texas Instruments SN74ACT7808 datasheet
07-20-2016 SN74ACT7806 Texas Instruments SN74ACT7806 datasheet
07-20-2016 2SC1845 Transistors 2SC1845 USHA 2SC1845 datasheet
07-20-2016 SN74ACT7803 Texas Instruments SN74ACT7803 datasheet
07-20-2016 PD2601 INTEGRATED CIRCUITS DIVISION Param IXYS PD2601 datasheet
07-20-2016 LOC211P INTEGRATED CIRCUITS DIVISION Param IXYS LOC211P datasheet
07-20-2016 PD2401 INTEGRATED CIRCUITS DIVISION Param IXYS PD2401 datasheet
07-20-2016 IXYH30N65C3H1 Preliminary Technical Information IXYS IXYH30N65C3H1 datasheet
07-20-2016 IXYP20N65C3D1M Preliminary Technical Information IXYS IXYP20N65C3D1M datasheet
07-20-2016 IXYT30N65C3H1HV Preliminary Technical Information IXYS IXYT30N65C3H1HV datasheet
07-20-2016 IXYP20N65B3D1 Advance Technical Information XPTT IXYS IXYP20N65B3D1 datasheet
07-20-2016 IXYP15N65C3 Preliminary Technical Information IXYS IXYP15N65C3 datasheet
07-20-2016 IXYP15N65C3D1M XPTTM 650V IGBT GenX3TM w/Diode (El IXYS IXYP15N65C3D1M datasheet
07-20-2016 IXYP10N65C3D1M Preliminary Technical Information IXYS IXYP10N65C3D1M datasheet
07-20-2016 IXYP10N65C3D1 Preliminary Technical Information IXYS IXYP10N65C3D1 datasheet
07-20-2016 IXYP10N65C3 Preliminary Technical Information IXYS IXYP10N65C3 datasheet
07-20-2016 UM9636 UM9636 High-Speed Dual SPDT Switch Union Semiconductor UM9636 datasheet
07-20-2016 IXYN75N65C3D1 Advance Technical Information XPTT IXYS IXYN75N65C3D1 datasheet
07-20-2016 IXYP10N65B3D1 Advance Technical Information XPTT IXYS IXYP10N65B3D1 datasheet
07-20-2016 IXYN150N60B3 Preliminary Technical Information IXYS IXYN150N60B3 datasheet
07-20-2016 IXYN120N65B3D1 XPTTM 650V IGBT GenX3TM w/ Diode I IXYS IXYN120N65B3D1 datasheet
07-20-2016 IXYN120N65C3D1 Advance Technical Information XPTT IXYS IXYN120N65C3D1 datasheet
07-20-2016 IXYN100N65C3H1 Preliminary Technical Information IXYS IXYN100N65C3H1 datasheet
07-20-2016 IXYN82N120C3 1200V XPTTM IGBT GenX3TM High-Speed IXYS IXYN82N120C3 datasheet
07-20-2016 IXYN100N65B3D1 Advance Technical Information XPTT IXYS IXYN100N65B3D1 datasheet
07-20-2016 IXYN100N120C3H1 1200V XPTTM IGBT GenX3TM w/ Diode H IXYS IXYN100N120C3H1 datasheet
07-20-2016 IXYX100N65C3D1 Advance Technical Information XPTT IXYS IXYX100N65C3D1 datasheet
07-20-2016 IXYN100N65A3 650V XPTTM IGBT GenX3TM Ultra Low-V IXYS IXYN100N65A3 datasheet
07-20-2016 IXYK100N65C3D1 Advance Technical Information XPTT IXYS IXYK100N65C3D1 datasheet
07-20-2016 IXYK120N120C3 1200V XPTTM IGBTs GenX3TM High-Spee IXYS IXYK120N120C3 datasheet
07-20-2016 IXYX120N120C3 1200V XPTTM IGBTs GenX3TM High-Spee IXYS IXYX120N120C3 datasheet
07-20-2016 SN65LVDS84AQ-Q1 Texas Instruments SN65LVDS84AQ-Q1 datasheet
07-20-2016 SN65LVDS84AQ Texas Instruments SN65LVDS84AQ datasheet
07-20-2016 SN64BCT541A Texas Instruments SN64BCT541A datasheet
07-20-2016 SN64BCT374 Texas Instruments SN64BCT374 datasheet
07-20-2016 SN64BCT373 Texas Instruments SN64BCT373 datasheet
07-20-2016 SN64BCT306 Texas Instruments SN64BCT306 datasheet
07-20-2016 SN64BCT29828B Texas Instruments SN64BCT29828B datasheet
07-20-2016 SN64BCT2827C Texas Instruments SN64BCT2827C datasheet
07-20-2016 SN64BCT25245 Texas Instruments SN64BCT25245 datasheet
07-20-2016 SN64BCT25244 Texas Instruments SN64BCT25244 datasheet
07-20-2016 SN64BCT245 Texas Instruments SN64BCT245 datasheet
07-20-2016 SN64BCT244 Texas Instruments SN64BCT244 datasheet
07-20-2016 SN64BCT241 Texas Instruments SN64BCT241 datasheet
07-20-2016 SN64BCT240 Texas Instruments SN64BCT240 datasheet
07-20-2016 SN64BCT2244 Texas Instruments SN64BCT2244 datasheet
07-20-2016 SN64BCT2241 Texas Instruments SN64BCT2241 datasheet
07-20-2016 SN64BCT2240 Texas Instruments SN64BCT2240 datasheet
07-20-2016 SN64BCT126A Texas Instruments SN64BCT126A datasheet
07-20-2016 SN64BCT125A Texas Instruments SN64BCT125A datasheet
07-20-2016 SN55LVDS33-SP Texas Instruments SN55LVDS33-SP datasheet
07-20-2016 SN55LVDS32-SP Texas Instruments SN55LVDS32-SP datasheet
07-20-2016 SN55LVDS31-SP Texas Instruments SN55LVDS31-SP datasheet
07-20-2016 SN55LVCP22-SP Texas Instruments SN55LVCP22-SP datasheet
07-20-2016 SN55LBC976 Texas Instruments SN55LBC976 datasheet
07-20-2016 SN55LBC175 Texas Instruments SN55LBC175 datasheet
07-20-2016 SN55LBC174 Texas Instruments SN55LBC174 datasheet
07-20-2016 SN55LBC173-HIREL Texas Instruments SN55LBC173-HIREL datasheet
07-20-2016 SN55LBC173-DIE Texas Instruments SN55LBC173-DIE datasheet
07-20-2016 SN55HVD75-EP Texas Instruments SN55HVD75-EP datasheet
07-20-2016 SN75976A Texas Instruments SN75976A datasheet
07-20-2016 SN55976A Texas Instruments SN55976A datasheet
07-20-2016 SN75463 Texas Instruments SN75463 datasheet
07-20-2016 SN75462 Texas Instruments SN75462 datasheet
07-20-2016 SN75461 Texas Instruments SN75461 datasheet
07-20-2016 SN55463 Texas Instruments SN55463 datasheet
07-20-2016 SN55461 Texas Instruments SN55461 datasheet
07-20-2016 SN55462 Texas Instruments SN55462 datasheet
07-20-2016 SN55183-SP Texas Instruments SN55183-SP datasheet
07-20-2016 SN55182-SP Texas Instruments SN55182-SP datasheet
07-20-2016 SN75122 Texas Instruments SN75122 datasheet
07-20-2016 N8T14 Texas Instruments N8T14 datasheet
07-20-2016 SN55122 Texas Instruments SN55122 datasheet
07-20-2016 SN55121 Texas Instruments SN55121 datasheet
07-20-2016 SN75121 Texas Instruments SN75121 datasheet
07-20-2016 SN75119 Texas Instruments SN75119 datasheet
07-20-2016 SN75118 Texas Instruments SN75118 datasheet
07-20-2016 SN75117 Texas Instruments SN75117 datasheet
07-20-2016 SN55116 Texas Instruments SN55116 datasheet
07-20-2016 SN75116 Texas Instruments SN75116 datasheet
07-20-2016 SN75114 Texas Instruments SN75114 datasheet
07-20-2016 SN55114 Texas Instruments SN55114 datasheet
07-20-2016 SN75113 Texas Instruments SN75113 datasheet
07-20-2016 SN55113 Texas Instruments SN55113 datasheet
07-20-2016 SN74S38 Texas Instruments SN74S38 datasheet
07-20-2016 SN74LS38 Texas Instruments SN74LS38 datasheet
07-20-2016 SN7438 Texas Instruments SN7438 datasheet
07-20-2016 SN54LS38 Texas Instruments SN54LS38 datasheet
07-20-2016 SN5438 Texas Instruments SN5438 datasheet
07-20-2016 SN54S38 Texas Instruments SN54S38 datasheet
07-20-2016 SN74S30 Texas Instruments SN74S30 datasheet
07-20-2016 SN74LS30 Texas Instruments SN74LS30 datasheet
07-20-2016 SN54LS30 Texas Instruments SN54LS30 datasheet
07-20-2016 SN7430 Texas Instruments SN7430 datasheet
07-20-2016 SN5430 Texas Instruments SN5430 datasheet
07-20-2016 SN54S30 Texas Instruments SN54S30 datasheet
07-20-2016 SN74283 Texas Instruments SN74283 datasheet
07-20-2016 SN74LS283 Texas Instruments SN74LS283 datasheet
07-20-2016 SN74S283 Texas Instruments SN74S283 datasheet
07-20-2016 SN54283 Texas Instruments SN54283 datasheet
07-20-2016 SN54LS283 Texas Instruments SN54LS283 datasheet
07-20-2016 SN54S283 Texas Instruments SN54S283 datasheet
07-20-2016 SN74S280 Texas Instruments SN74S280 datasheet
07-20-2016 SN74LS280 Texas Instruments SN74LS280 datasheet
07-20-2016 C3150 SavantIC Semiconductor Silicon NPN SavantIC C3150 datasheet
07-20-2016 SN54LS280 Texas Instruments SN54LS280 datasheet
07-20-2016 2SC536K 2SC536(K) Rev.E Mar.-2016 DATA SHE BLUE ROCKET ELECTRONICS 2SC536K datasheet
07-20-2016 2SC536 2SC536(K) Rev.E Mar.-2016 DATA SHE BLUE ROCKET ELECTRONICS 2SC536 datasheet
07-20-2016 BT151L BT151 SCRS UNISONIC TECHNOLOGIES C UTC BT151L datasheet
07-20-2016 BT151G BT151 SCRS UNISONIC TECHNOLOGIES C UTC BT151G datasheet
07-20-2016 BT151-1000RT TO-220AB BT151-1000RT SCR 13 March NXP BT151-1000RT datasheet
07-20-2016 BT151-600 SemiWell Semiconductor Preliminary SemiWell BT151-600 datasheet
07-20-2016 BT151 BT151 series Thyristors Rev. 03 Philips BT151 datasheet
07-20-2016 BTA41-800 BTA40, BTA41, BTB41 40 A standard T STMicroelectronics BTA41-800 datasheet
07-20-2016 BTB41-600 BTA40, BTA41, BTB41 40 A standard T STMicroelectronics BTB41-600 datasheet
07-20-2016 BTA40-800 BTA40, BTA41, BTB41 40 A standard T STMicroelectronics BTA40-800 datasheet
07-20-2016 MHB4503 ETC MHB4503 datasheet
07-20-2016 MHB4518 ETC MHB4518 datasheet
07-20-2016 MHB4099 ETC MHB4099 datasheet
07-20-2016 MHB4311 ETC MHB4311 datasheet
07-20-2016 MHB4076 ETC MHB4076 datasheet
07-20-2016 MHB4081 ETC MHB4081 datasheet
07-20-2016 MHB4066 ETC MHB4066 datasheet
07-20-2016 MHB4068 ETC MHB4068 datasheet
07-20-2016 MHB4052 ETC MHB4052 datasheet
07-20-2016 MHB4055 ETC MHB4055 datasheet
07-20-2016 MHB4050 ETC MHB4050 datasheet
07-20-2016 MHB4051 ETC MHB4051 datasheet
07-20-2016 MHB4543 ETC MHB4543 datasheet
07-20-2016 MHB4555 ETC MHB4555 datasheet
07-20-2016 MHB4046 ETC MHB4046 datasheet
07-20-2016 MHB4049 ETC MHB4049 datasheet
07-20-2016 MHB4029 ETC MHB4029 datasheet
07-20-2016 MHB4030 ETC MHB4030 datasheet
07-20-2016 MHB4020 ETC MHB4020 datasheet
07-20-2016 MHB4024 ETC MHB4024 datasheet
07-20-2016 MHB4015 ETC MHB4015 datasheet
07-20-2016 MHB4012 ETC MHB4012 datasheet
07-20-2016 MHB4013 ETC MHB4013 datasheet
07-20-2016 MHB4002 ETC MHB4002 datasheet
07-20-2016 MHB4011 ETC MHB4011 datasheet
07-20-2016 2SB772G UNISONIC TECHNOLOGIES CO., LTD 2SB UTC 2SB772G datasheet
07-20-2016 2N2222A PN2222A / 2N2222A PN2222A / 2N2222 Diotec 2N2222A datasheet
07-20-2016 PN2222A PN2222A TO - 92 BIPOLAR TRANSISTOR Rectron PN2222A datasheet
07-20-2016 PN2222A PN2222A / 2N2222A PN2222A / 2N2222 Diotec PN2222A datasheet
07-20-2016 2N2222A 2N2222A Small Signal Switching Tran ON Semiconductor 2N2222A datasheet
07-20-2016 JCS630 R JCS630 主要参数 MAIN CHARACT JILIN SINO-MICROELECTRONICS JCS630 datasheet
07-20-2016 SM8S11A SM8S10 thru SM8S43A Automotive Tran LGE SM8S11A datasheet
07-20-2016 SM8S12 SM8S10 thru SM8S43A Automotive Tran LGE SM8S12 datasheet
07-20-2016 SM8S11 SM8S10 thru SM8S43A Automotive Tran LGE SM8S11 datasheet
07-20-2016 SM8S10A SM8S10 thru SM8S43A Automotive Tran LGE SM8S10A datasheet
07-20-2016 SM8S43A www.vishay.com SM8S10 thru SM8S43A Vishay SM8S43A datasheet
07-20-2016 SM8S10 SM8S10 thru SM8S43A Automotive Tran LGE SM8S10 datasheet
07-20-2016 SM8S43 www.vishay.com SM8S10 thru SM8S43A Vishay SM8S43 datasheet
07-20-2016 SM8S40A www.vishay.com SM8S10 thru SM8S43A Vishay SM8S40A datasheet
07-20-2016 SM8S36A www.vishay.com SM8S10 thru SM8S43A Vishay SM8S36A datasheet
07-20-2016 SM8S40 www.vishay.com SM8S10 thru SM8S43A Vishay SM8S40 datasheet
07-20-2016 SM8S36 www.vishay.com SM8S10 thru SM8S43A Vishay SM8S36 datasheet
07-20-2016 SM8S33A www.vishay.com SM8S10 thru SM8S43A Vishay SM8S33A datasheet
07-20-2016 SM8S30A www.vishay.com SM8S10 thru SM8S43A Vishay SM8S30A datasheet
07-20-2016 SM8S33 www.vishay.com SM8S10 thru SM8S43A Vishay SM8S33 datasheet
07-20-2016 SM8S30 www.vishay.com SM8S10 thru SM8S43A Vishay SM8S30 datasheet
07-20-2016 SM8S28 www.vishay.com SM8S10 thru SM8S43A Vishay SM8S28 datasheet
07-20-2016 SM8S28A www.vishay.com SM8S10 thru SM8S43A Vishay SM8S28A datasheet
07-20-2016 SM8S26A www.vishay.com SM8S10 thru SM8S43A Vishay SM8S26A datasheet
07-20-2016 SM8S26 www.vishay.com SM8S10 thru SM8S43A Vishay SM8S26 datasheet
07-20-2016 SM8S24 www.vishay.com SM8S10 thru SM8S43A Vishay SM8S24 datasheet
07-20-2016 SM8S24A www.vishay.com SM8S10 thru SM8S43A Vishay SM8S24A datasheet
07-20-2016 SM8S22A www.vishay.com SM8S10 thru SM8S43A Vishay SM8S22A datasheet
07-20-2016 SM8S22 www.vishay.com SM8S10 thru SM8S43A Vishay SM8S22 datasheet
07-20-2016 SM8S20 www.vishay.com SM8S10 thru SM8S43A Vishay SM8S20 datasheet
07-20-2016 SM8S20A www.vishay.com SM8S10 thru SM8S43A Vishay SM8S20A datasheet
07-20-2016 SM8S18A www.vishay.com SM8S10 thru SM8S43A Vishay SM8S18A datasheet
07-20-2016 SM8S18 www.vishay.com SM8S10 thru SM8S43A Vishay SM8S18 datasheet
07-20-2016 SM8S17 www.vishay.com SM8S10 thru SM8S43A Vishay SM8S17 datasheet
07-20-2016 SM8S17A www.vishay.com SM8S10 thru SM8S43A Vishay SM8S17A datasheet
07-20-2016 SM8S16A www.vishay.com SM8S10 thru SM8S43A Vishay SM8S16A datasheet
07-20-2016 SM8S16 www.vishay.com SM8S10 thru SM8S43A Vishay SM8S16 datasheet
07-20-2016 SM8S15A www.vishay.com SM8S10 thru SM8S43A Vishay SM8S15A datasheet
07-20-2016 SM8S14A www.vishay.com SM8S10 thru SM8S43A Vishay SM8S14A datasheet
07-20-2016 SM8S15 www.vishay.com SM8S10 thru SM8S43A Vishay SM8S15 datasheet
07-20-2016 SM8S14 www.vishay.com SM8S10 thru SM8S43A Vishay SM8S14 datasheet
07-20-2016 SM8S13A www.vishay.com SM8S10 thru SM8S43A Vishay SM8S13A datasheet
07-20-2016 SM8S12A www.vishay.com SM8S10 thru SM8S43A Vishay SM8S12A datasheet
07-20-2016 SM8S13 www.vishay.com SM8S10 thru SM8S43A Vishay SM8S13 datasheet
07-20-2016 SM8S12 www.vishay.com SM8S10 thru SM8S43A Vishay SM8S12 datasheet
07-20-2016 SM8S11A www.vishay.com SM8S10 thru SM8S43A Vishay SM8S11A datasheet
07-20-2016 SM8S11 www.vishay.com SM8S10 thru SM8S43A Vishay SM8S11 datasheet
07-20-2016 SM8S10 www.vishay.com SM8S10 thru SM8S43A Vishay SM8S10 datasheet
07-20-2016 SM8S10A www.vishay.com SM8S10 thru SM8S43A Vishay SM8S10A datasheet
07-20-2016 SM8S43A SM8S10 thru SM8S43A Automotive Tran LGE SM8S43A datasheet
07-20-2016 SM8S43 SM8S10 thru SM8S43A Automotive Tran LGE SM8S43 datasheet
07-20-2016 SM8S40A SM8S10 thru SM8S43A Automotive Tran LGE SM8S40A datasheet
07-20-2016 SM8S40 SM8S10 thru SM8S43A Automotive Tran LGE SM8S40 datasheet
07-20-2016 SM8S36 SM8S10 thru SM8S43A Automotive Tran LGE SM8S36 datasheet
07-20-2016 SM8S36A SM8S10 thru SM8S43A Automotive Tran LGE SM8S36A datasheet
07-20-2016 SM8S33A SM8S10 thru SM8S43A Automotive Tran LGE SM8S33A datasheet
07-20-2016 SM8S33 SM8S10 thru SM8S43A Automotive Tran LGE SM8S33 datasheet
07-20-2016 SM8S30A SM8S10 thru SM8S43A Automotive Tran LGE SM8S30A datasheet
07-20-2016 SM8S28A SM8S10 thru SM8S43A Automotive Tran LGE SM8S28A datasheet
07-20-2016 SM8S30 SM8S10 thru SM8S43A Automotive Tran LGE SM8S30 datasheet
07-20-2016 SM8S28 SM8S10 thru SM8S43A Automotive Tran LGE SM8S28 datasheet
07-20-2016 SM8S26A SM8S10 thru SM8S43A Automotive Tran LGE SM8S26A datasheet
07-20-2016 SM8S26 SM8S10 thru SM8S43A Automotive Tran LGE SM8S26 datasheet
07-20-2016 SM8S24 SM8S10 thru SM8S43A Automotive Tran LGE SM8S24 datasheet
07-20-2016 SM8S24A SM8S10 thru SM8S43A Automotive Tran LGE SM8S24A datasheet
07-20-2016 SM8S22A SM8S10 thru SM8S43A Automotive Tran LGE SM8S22A datasheet
07-20-2016 SM8S22 SM8S10 thru SM8S43A Automotive Tran LGE SM8S22 datasheet
07-20-2016 SM8S20A SM8S10 thru SM8S43A Automotive Tran LGE SM8S20A datasheet
07-20-2016 SM8S18A SM8S10 thru SM8S43A Automotive Tran LGE SM8S18A datasheet
07-20-2016 SM8S20 SM8S10 thru SM8S43A Automotive Tran LGE SM8S20 datasheet
07-20-2016 SM8S18 SM8S10 thru SM8S43A Automotive Tran LGE SM8S18 datasheet
07-20-2016 SM8S17A SM8S10 thru SM8S43A Automotive Tran LGE SM8S17A datasheet
07-20-2016 SM8S17 SM8S10 thru SM8S43A Automotive Tran LGE SM8S17 datasheet
07-20-2016 SM8S16A SM8S10 thru SM8S43A Automotive Tran LGE SM8S16A datasheet
07-20-2016 SM8S16 SM8S10 thru SM8S43A Automotive Tran LGE SM8S16 datasheet
07-20-2016 SM8S15 SM8S10 thru SM8S43A Automotive Tran LGE SM8S15 datasheet
07-20-2016 SM8S15A SM8S10 thru SM8S43A Automotive Tran LGE SM8S15A datasheet
07-20-2016 SM8S14A SM8S10 thru SM8S43A Automotive Tran LGE SM8S14A datasheet
07-20-2016 SM8S14 SM8S10 thru SM8S43A Automotive Tran LGE SM8S14 datasheet
07-20-2016 SM8S13A SM8S10 thru SM8S43A Automotive Tran LGE SM8S13A datasheet
07-20-2016 SM8S12A SM8S10 thru SM8S43A Automotive Tran LGE SM8S12A datasheet
07-20-2016 SM8S13 SM8S10 thru SM8S43A Automotive Tran LGE SM8S13 datasheet
07-20-2016 MHB4001 ETC MHB4001 datasheet
07-20-2016 LM2575 LM1575/LM2575/LM2575HV Series SIMPL National Semiconductor LM2575 datasheet

8-2018    7-2018    6-2018    5-2018    4-2018    3-2018    2-2018    1-2018
12-2017    11-2017    10-2017    9-2017    8-2017    7-2017    6-2017    5-2017    4-2017    3-2017    2-2017    1-2017
12-2016    11-2016    10-2016    9-2016    8-2016    7-2016    6-2016    5-2016    4-2016    3-2016    2-2016    1-2016
12-2015    11-2015    10-2015    9-2015    8-2015    7-2015    6-2015    5-2015    4-2015    3-2015    2-2015    1-2015
12-2014    11-2014    10-2014    9-2014    8-2014    7-2014    6-2014    5-2014    4-2014    3-2014    2-2014    1-2014
12-2013    11-2013    10-2013    9-2013    8-2013    7-2013    6-2013    5-2013    4-2013    3-2013    2-2013    1-2013
12-2012    11-2012    10-2012    9-2012    8-2012    7-2012    6-2012    5-2012    4-2012    3-2012    2-2012    1-2012
12-2011    11-2011    10-2011    9-2011    8-2011    7-2011    6-2011    5-2011    4-2011    3-2011    2-2011    1-2011
12-2010    11-2010    10-2010    9-2010    8-2010    7-2010    6-2010    5-2010    4-2010    3-2010    2-2010    1-2010


31  30  29  28  27  26  25  24  23  22  21  20  19  18  17  16  15  14  13  12  11  10  09  08  07  06  05  04  03  02  01


The site has been moved : DatasheetsPDF.com
Since 2005 - HOME - Link US - All - Privacy Policy & Contact Us -